Time;durP1;ratioP1;P1;durP2;ratioP2;P2;SDS_P1;SDS_P2;PMS_P1;PMS_P2;Temp;Humidity;BMP_temperature;BMP_pressure;BME280_temperature;BME280_humidity;BME280_pressure;Samples;Min_cycle;Max_cycle;Signal;HPM_P1;HPM_P2
2023/08/03 06:45:51;;;;;;;;;;;;;;;24.28;60.06;99122.47;91168;1295;119542;-87
2023/08/03 06:49:18;;;;;;;;;;;;;;;25.54;60.00;99123.54;105407;1301;71331;-90
2023/08/03 07:06:16;;;;;;;;;;;;;;;31.46;57.60;99125.80;96741;1299;333586;-86
2023/08/03 07:09:02;;;;;;;;;;;;;;;32.38;57.18;99128.14;105488;1299;59701;-86
2023/08/03 07:12:08;;;;;;;;;;;;;;;33.14;55.97;99131.24;105577;1299;74496;-89
2023/08/03 07:15:05;;;;;;;;;;;;;;;33.96;55.68;99135.50;105387;1301;67677;-88
2023/08/03 07:18:31;;;;;;;;;;;;;;;34.93;54.62;99133.03;105105;1305;73054;-89
2023/08/03 07:21:58;;;;;;;;;;;;;;;35.61;54.00;99136.04;105221;1305;59010;-89
2023/08/03 07:25:26;;;;;;;;;;;;;;;35.77;53.67;99134.70;105104;1304;58883;-89
2023/08/03 07:28:52;;;;;;;;;;;;;;;36.11;53.11;99138.71;104347;1312;74509;-89
2023/08/03 07:32:19;;;;;;;;;;;;;;;36.12;53.48;99143.92;104297;1313;68223;-88
2023/08/03 07:35:45;;;;;;;;;;;;;;;36.25;52.37;99148.34;104264;1312;71515;-89
2023/08/03 07:38:52;;;;;;;;;;;;;;;35.84;51.44;99153.52;104270;1312;59085;-89
2023/08/03 07:42:18;;;;;;;;;;;;;;;35.53;51.49;99153.00;104324;1316;59057;-89
2023/08/03 07:45:44;;;;;;;;;;;;;;;35.46;50.64;99150.25;104321;1313;75376;-89
2023/08/03 07:49:11;;;;;;;;;;;;;;;34.38;49.87;99147.39;104339;1312;67384;-89
2023/08/03 07:52:38;;;;;;;;;;;;;;;34.07;49.75;99144.88;104269;1312;72164;-89
2023/08/03 07:56:04;;;;;;;;;;;;;;;35.24;48.73;99154.65;104565;1308;58980;-89
2023/08/03 07:59:30;;;;;;;;;;;;;;;35.81;46.83;99153.48;104551;1309;59833;-89
2023/08/03 08:02:57;;;;;;;;;;;;;;;34.29;46.04;99145.64;104566;1310;74647;-89
2023/08/03 08:06:23;;;;;;;;;;;;;;;34.15;45.27;99143.03;105175;1302;67525;-89
2023/08/03 08:09:34;;;;;;;;;;;;;;;33.77;46.19;99144.95;105286;1301;71200;-90
2023/08/03 08:12:20;;;;;;;;;;;;;;;34.76;45.46;99150.59;105263;1301;59114;-87
2023/08/03 08:15:34;;;;;;;;;;;;;;;35.04;45.17;99150.73;105299;1302;60367;-88
2023/08/03 08:18:24;;;;;;;;;;;;;;;36.50;44.85;99147.52;105244;1301;73460;-87
2023/08/03 08:21:20;;;;;;;;;;;;;;;38.50;44.08;99150.02;105170;1301;67233;-88
2023/08/03 08:24:26;;;;;;;;;;;;;;;39.32;43.65;99148.86;105219;1302;71475;-88
2023/08/03 08:27:33;;;;;;;;;;;;;;;36.63;43.57;99147.17;105247;1301;59002;-87
2023/08/03 08:30:40;;;;;;;;;;;;;;;35.08;43.91;99154.48;105274;1302;59602;-87
2023/08/03 08:34:06;;;;;;;;;;;;;;;34.19;43.43;99152.21;105340;1301;74299;-87
2023/08/03 08:37:12;;;;;;;;;;;;;;;33.58;43.11;99151.99;105309;1301;68478;-87
2023/08/03 08:40:03;;;;;;;;;;;;;;;32.46;43.04;99155.66;105238;1301;72246;-87
2023/08/03 08:42:53;;;;;;;;;;;;;;;32.72;42.81;99152.73;105183;1301;59323;-87
2023/08/03 08:46:18;;;;;;;;;;;;;;;31.58;42.07;99157.81;105262;1302;59292;-87
2023/08/03 08:49:25;;;;;;;;;;;;;;;30.36;42.33;99155.09;105236;1301;74371;-87
2023/08/03 08:52:51;;;;;;;;;;;;;;;30.91;42.83;99156.44;105173;1302;67421;-87
2023/08/03 08:56:17;;;;;;;;;;;;;;;30.64;42.14;99155.66;105272;1301;73143;-87
2023/08/03 08:59:23;;;;;;;;;;;;;;;29.81;42.02;99161.17;105230;1301;59922;-87
2023/08/03 09:02:49;;;;;;;;;;;;;;;28.97;42.09;99164.36;105236;1301;60436;-87
2023/08/03 09:06:17;;;;;;;;;;;;;;;28.13;42.06;99172.27;105303;1301;75300;-87
2023/08/03 09:09:46;;;;;;;;;;;;;;;27.30;42.18;99171.16;105373;1301;67971;-87
2023/08/03 09:12:52;;;;;;;;;;;;;;;26.81;42.42;99163.60;105351;1300;72685;-87
2023/08/03 09:16:19;;;;;;;;;;;;;;;26.70;42.64;99158.88;105260;1301;59337;-86
2023/08/03 09:19:25;;;;;;;;;;;;;;;26.66;42.46;99154.86;105317;1301;60819;-87
2023/08/03 09:22:51;;;;;;;;;;;;;;;26.55;42.47;99153.23;105296;1301;73352;-87
2023/08/03 09:26:11;;;;;;;;;;;;;;;26.47;42.86;99150.13;105314;1301;67249;-87
2023/08/03 09:29:38;;;;;;;;;;;;;;;26.37;42.72;99152.12;105321;1301;72638;-86
2023/08/03 09:32:44;;;;;;;;;;;;;;;26.32;42.77;99153.53;105302;1301;58990;-87
2023/08/03 09:36:11;;;;;;;;;;;;;;;26.32;42.87;99156.21;105230;1302;59868;-86
2023/08/03 09:39:38;;;;;;;;;;;;;;;26.28;42.90;99154.30;105353;1302;73117;-87
2023/08/03 09:43:02;;;;;;;;;;;;;;;26.19;42.86;99161.42;105354;1301;67408;-87
2023/08/03 09:46:29;;;;;;;;;;;;;;;26.03;42.96;99162.45;105381;1302;72425;-87
2023/08/03 09:49:52;;;;;;;;;;;;;;;25.97;43.30;99169.94;105336;1301;59153;-86
2023/08/03 09:53:01;;;;;;;;;;;;;;;25.90;43.32;99168.08;105396;1302;59802;-86
2023/08/03 09:56:28;;;;;;;;;;;;;;;25.78;43.33;99171.18;105357;1301;73223;-86
2023/08/03 09:59:34;;;;;;;;;;;;;;;25.70;43.45;99176.06;105342;1301;67623;-87
2023/08/03 10:03:12;;;;;;;;;;;;;;;25.62;43.68;99173.36;105396;1302;71442;-86
2023/08/03 10:06:29;;;;;;;;;;;;;;;25.54;43.57;99174.20;104634;1307;59353;-87
2023/08/03 10:09:58;;;;;;;;;;;;;;;25.43;43.86;99165.45;104572;1308;58883;-87
2023/08/03 10:13:24;;;;;;;;;;;;;;;25.45;43.94;99159.75;104651;1308;74173;-86
2023/08/03 10:16:52;;;;;;;;;;;;;;;25.38;44.12;99168.32;104616;1308;67337;-87
2023/08/03 10:20:07;;;;;;;;;;;;;;;25.39;44.24;99174.12;104658;1308;71355;-86
2023/08/03 10:23:35;;;;;;;;;;;;;;;25.31;44.24;99175.45;104649;1307;59027;-87
2023/08/03 10:26:58;;;;;;;;;;;;;;;25.17;44.34;99171.89;104639;1307;59832;-86
2023/08/03 10:30:14;;;;;;;;;;;;;;;25.04;44.51;99178.95;104671;1307;75254;-86
2023/08/03 10:33:40;;;;;;;;;;;;;;;25.03;44.58;99181.79;104656;1308;68684;-86
2023/08/03 10:37:06;;;;;;;;;;;;;;;25.05;44.73;99173.96;104616;1307;71459;-86
2023/08/03 10:40:31;;;;;;;;;;;;;;;25.12;44.83;99176.61;104661;1307;59125;-86
2023/08/03 10:43:38;;;;;;;;;;;;;;;25.17;44.80;99177.91;105262;1301;59051;-87
2023/08/03 10:46:51;;;;;;;;;;;;;;;25.24;45.20;99178.93;105143;1304;72889;-86
2023/08/03 10:50:04;;;;;;;;;;;;;;;25.31;45.17;99162.35;105313;1301;68631;-86
2023/08/03 10:53:30;;;;;;;;;;;;;;;25.33;45.33;99160.45;104605;1309;71368;-87
2023/08/03 10:56:56;;;;;;;;;;;;;;;25.35;45.10;99169.92;104577;1309;58905;-87
2023/08/03 11:00:22;;;;;;;;;;;;;;;25.33;45.20;99172.55;104581;1310;59030;-86
2023/08/03 11:03:54;;;;;;;;;;;;;;;25.32;45.17;99168.80;104303;1311;74435;-86
2023/08/03 11:07:21;;;;;;;;;;;;;;;25.32;45.32;99176.36;104260;1311;68509;-86
2023/08/03 11:10:47;;;;;;;;;;;;;;;25.31;45.41;99185.33;104133;1313;71408;-87
2023/08/03 11:14:15;;;;;;;;;;;;;;;25.31;45.52;99184.41;104123;1313;59006;-87
2023/08/03 11:17:42;;;;;;;;;;;;;;;25.37;45.62;99185.95;104138;1314;59419;-87
2023/08/03 11:21:08;;;;;;;;;;;;;;;25.35;45.43;99177.49;104168;1313;74339;-87
2023/08/03 11:24:33;;;;;;;;;;;;;;;25.35;45.77;99173.96;104207;1311;67700;-86
2023/08/03 11:27:40;;;;;;;;;;;;;;;25.35;45.81;99168.67;104269;1311;71489;-87
2023/08/03 11:30:47;;;;;;;;;;;;;;;25.38;45.77;99170.14;104799;1304;59202;-87
2023/08/03 11:34:13;;;;;;;;;;;;;;;25.37;45.78;99162.10;105063;1301;59718;-87
2023/08/03 11:37:39;;;;;;;;;;;;;;;25.37;45.83;99169.70;105297;1301;74529;-87
2023/08/03 11:41:06;;;;;;;;;;;;;;;25.46;45.96;99178.34;105321;1301;68368;-87
2023/08/03 11:44:14;;;;;;;;;;;;;;;25.45;45.93;99178.30;105278;1302;73982;-87
2023/08/03 11:47:36;;;;;;;;;;;;;;;25.39;45.95;99177.79;105342;1302;58990;-87
2023/08/03 11:51:02;;;;;;;;;;;;;;;25.36;46.20;99177.38;105301;1301;59245;-87
2023/08/03 11:54:34;;;;;;;;;;;;;;;25.38;46.20;99185.69;105291;1302;73339;-87
2023/08/03 11:58:12;;;;;;;;;;;;;;;25.41;46.12;99178.14;105322;1301;68983;-87
2023/08/03 12:01:39;;;;;;;;;;;;;;;25.43;46.06;99183.38;105234;1301;71902;-86
2023/08/03 12:05:05;;;;;;;;;;;;;;;25.40;46.01;99183.16;105275;1301;59011;-87
2023/08/03 12:08:31;;;;;;;;;;;;;;;25.33;46.18;99171.14;105278;1302;59372;-86
2023/08/03 12:11:57;;;;;;;;;;;;;;;25.30;46.20;99163.50;105226;1301;73228;-87
2023/08/03 12:15:23;;;;;;;;;;;;;;;25.30;46.35;99160.02;105262;1302;68238;-87
2023/08/03 12:18:49;;;;;;;;;;;;;;;25.28;46.32;99166.80;105323;1301;72370;-87
2023/08/03 12:21:55;;;;;;;;;;;;;;;25.30;46.25;99166.73;105219;1302;59044;-86
2023/08/03 12:25:01;;;;;;;;;;;;;;;25.37;46.28;99173.18;105279;1301;59028;-86
2023/08/03 12:27:56;;;;;;;;;;;;;;;25.45;46.36;99172.83;105225;1302;73460;-86
2023/08/03 12:31:21;;;;;;;;;;;;;;;25.51;46.34;99178.35;105264;1302;67628;-86
2023/08/03 12:34:47;;;;;;;;;;;;;;;25.51;46.32;99175.34;105095;1305;71448;-86
2023/08/03 12:37:58;;;;;;;;;;;;;;;25.43;46.34;99182.72;105180;1305;59052;-87
2023/08/03 12:41:23;;;;;;;;;;;;;;;25.33;46.41;99189.52;105160;1305;59949;-86
2023/08/03 12:44:49;;;;;;;;;;;;;;;25.20;46.33;99188.77;104853;1305;73202;-87
2023/08/03 12:48:15;;;;;;;;;;;;;;;25.27;46.60;99189.47;104928;1305;69027;-86
2023/08/03 12:51:30;;;;;;;;;;;;;;;25.31;46.46;99183.32;104799;1308;71868;-86
2023/08/03 13:55:08;;;;;;;;;;;;;;;25.20;45.53;99250.13;83740;1327;73480;-94
2023/08/03 13:57:54;;;;;;;;;;;;;;;25.12;45.43;99249.09;105288;1302;70115;-85
2023/08/03 14:00:41;;;;;;;;;;;;;;;25.10;45.52;99244.73;105129;1301;71403;-85
2023/08/03 14:03:54;;;;;;;;;;;;;;;25.10;45.49;99255.65;105240;1302;59161;-86
2023/08/03 14:06:45;;;;;;;;;;;;;;;25.10;45.44;99250.59;105326;1302;59210;-85
2023/08/03 14:09:40;;;;;;;;;;;;;;;25.14;45.34;99253.90;105348;1302;73274;-86
2023/08/03 14:12:26;;;;;;;;;;;;;;;25.15;45.32;99248.80;105230;1302;67454;-88
2023/08/03 14:15:12;;;;;;;;;;;;;;;25.12;45.28;99244.06;105024;1302;71251;-85
2023/08/03 14:17:58;;;;;;;;;;;;;;;25.03;45.10;99249.42;105285;1302;59103;-85
2023/08/03 14:20:49;;;;;;;;;;;;;;;24.95;45.01;99261.71;105244;1306;59167;-85
2023/08/03 14:23:36;;;;;;;;;;;;;;;24.93;45.21;99263.90;105267;1302;76236;-85
2023/08/03 14:26:22;;;;;;;;;;;;;;;24.95;45.19;99265.75;105208;1302;67452;-85
2023/08/03 14:29:09;;;;;;;;;;;;;;;24.96;45.08;99262.12;105262;1303;71511;-85
2023/08/03 14:31:56;;;;;;;;;;;;;;;24.97;44.97;99266.81;105283;1302;59064;-85
2023/08/03 14:34:42;;;;;;;;;;;;;;;24.99;45.02;99276.16;105125;1305;59096;-85
2023/08/03 14:37:53;;;;;;;;;;;;;;;24.96;44.98;99276.27;105290;1302;75512;-85
2023/08/03 14:40:39;;;;;;;;;;;;;;;24.94;44.98;99278.23;105227;1302;67309;-86
2023/08/03 14:43:26;;;;;;;;;;;;;;;24.95;44.93;99277.77;105243;1305;72600;-85
2023/08/03 14:46:12;;;;;;;;;;;;;;;24.99;44.98;99276.49;105365;1302;59048;-85
2023/08/03 14:48:58;;;;;;;;;;;;;;;25.05;44.96;99278.05;105229;1303;59869;-85
2023/08/03 14:51:44;;;;;;;;;;;;;;;25.05;44.89;99273.03;105278;1301;74520;-85
2023/08/03 14:54:30;;;;;;;;;;;;;;;25.07;44.90;99272.69;105103;1302;67422;-85
2023/08/03 14:57:14;;;;;;;;;;;;;;;25.13;44.98;99278.80;104923;1302;71497;-85
2023/08/03 15:00:06;;;;;;;;;;;;;;;25.17;44.80;99287.30;105118;1301;59069;-85
2023/08/03 15:02:52;;;;;;;;;;;;;;;25.14;44.73;99280.55;105073;1302;59487;-85
2023/08/03 15:05:36;;;;;;;;;;;;;;;25.18;44.81;99288.27;105005;1301;73252;-85
2023/08/03 15:08:20;;;;;;;;;;;;;;;25.22;44.72;99293.70;104940;1302;67632;-85
2023/08/03 15:11:05;;;;;;;;;;;;;;;25.25;44.72;99290.36;105027;1305;71436;-85
2023/08/03 15:13:50;;;;;;;;;;;;;;;25.25;44.77;99290.36;105038;1303;59007;-85
2023/08/03 15:16:43;;;;;;;;;;;;;;;25.24;44.66;99282.54;105037;1302;59383;-85
2023/08/03 15:19:35;;;;;;;;;;;;;;;25.21;44.54;99278.25;104977;1302;73262;-85
2023/08/03 15:22:19;;;;;;;;;;;;;;;25.24;44.54;99282.35;104884;1308;67141;-85
2023/08/03 15:25:03;;;;;;;;;;;;;;;25.24;44.45;99281.95;105137;1302;71721;-85
2023/08/03 15:27:47;;;;;;;;;;;;;;;25.18;44.27;99288.80;104896;1302;59461;-85
2023/08/03 15:30:31;;;;;;;;;;;;;;;25.06;44.30;99291.33;104907;1302;59222;-85
2023/08/03 15:33:15;;;;;;;;;;;;;;;24.93;44.24;99293.81;105077;1303;73265;-85
2023/08/03 15:36:33;;;;;;;;;;;;;;;24.83;44.29;99295.52;105046;1301;68408;-85
2023/08/03 15:39:19;;;;;;;;;;;;;;;24.75;44.41;99294.86;104945;1302;72165;-85
2023/08/03 15:42:03;;;;;;;;;;;;;;;24.69;44.28;99296.11;105009;1302;59430;-85
2023/08/03 15:44:49;;;;;;;;;;;;;;;24.65;44.26;99304.64;105040;1302;59846;-85
2023/08/03 15:48:01;;;;;;;;;;;;;;;24.63;44.33;99303.95;105075;1302;74474;-85
2023/08/03 15:50:50;;;;;;;;;;;;;;;24.66;44.26;99305.81;104861;1302;208230;-85
2023/08/03 15:53:42;;;;;;;;;;;;;;;24.73;44.28;99303.52;101221;1305;5002139;-86
2023/08/03 15:56:28;;;;;;;;;;;;;;;24.75;44.21;99312.64;105075;1301;59302;-85
2023/08/03 15:59:13;;;;;;;;;;;;;;;24.70;43.96;99324.40;105031;1302;73557;-86
2023/08/03 16:01:57;;;;;;;;;;;;;;;24.60;44.01;99328.90;105037;1303;67283;-88
2023/08/03 16:04:43;;;;;;;;;;;;;;;24.53;44.05;99337.13;105020;1302;73672;-85
2023/08/03 16:07:35;;;;;;;;;;;;;;;24.48;43.89;99338.18;105104;1302;59362;-86
2023/08/03 16:10:19;;;;;;;;;;;;;;;24.41;43.91;99338.78;104955;1302;59494;-85
2023/08/03 16:13:04;;;;;;;;;;;;;;;24.36;44.00;99348.84;105168;1302;74582;-85
2023/08/03 16:15:48;;;;;;;;;;;;;;;24.34;44.02;99353.02;105163;1302;67536;-85
2023/08/03 16:18:35;;;;;;;;;;;;;;;24.30;43.97;99358.73;105210;1302;71302;-86
2023/08/03 16:21:22;;;;;;;;;;;;;;;24.25;44.06;99362.83;105189;1302;59574;-86
2023/08/03 16:24:08;;;;;;;;;;;;;;;24.23;44.11;99363.35;105213;1302;59079;-87
2023/08/03 16:26:54;;;;;;;;;;;;;;;24.24;44.10;99369.83;105011;1303;73533;-87
2023/08/03 16:29:40;;;;;;;;;;;;;;;24.26;44.17;99371.55;105031;1301;67273;-86
2023/08/03 16:32:26;;;;;;;;;;;;;;;24.31;44.19;99371.44;105184;1302;71435;-86
2023/08/03 16:35:13;;;;;;;;;;;;;;;24.35;44.30;99377.42;105132;1302;59164;-86
2023/08/03 16:37:59;;;;;;;;;;;;;;;24.38;44.23;99379.60;105106;1302;59063;-86
2023/08/03 16:41:06;;;;;;;;;;;;;;;24.40;44.27;99382.95;105086;1304;73282;-87
2023/08/03 16:43:52;;;;;;;;;;;;;;;24.39;44.32;99392.05;105197;1301;67415;-86
2023/08/03 16:46:41;;;;;;;;;;;;;;;24.35;44.30;99387.98;105247;1301;71498;-87
2023/08/03 16:49:29;;;;;;;;;;;;;;;24.32;44.38;99391.56;105188;1302;58977;-86
2023/08/03 16:52:16;;;;;;;;;;;;;;;24.33;44.40;99393.29;105115;1302;59128;-87
2023/08/03 16:55:03;;;;;;;;;;;;;;;24.34;44.45;99392.09;105077;1302;73968;-86
2023/08/03 16:57:49;;;;;;;;;;;;;;;24.32;44.48;99392.67;105171;1301;67296;-87
2023/08/03 17:00:35;;;;;;;;;;;;;;;24.30;44.48;99399.58;105210;1302;71449;-86
2023/08/03 17:03:24;;;;;;;;;;;;;;;24.26;44.51;99401.33;105173;1307;59051;-86
2023/08/03 17:06:12;;;;;;;;;;;;;;;24.25;44.53;99400.74;105194;1302;59418;-86
2023/08/03 17:08:58;;;;;;;;;;;;;;;24.21;44.45;99396.36;105187;1301;74607;-86
2023/08/03 17:11:44;;;;;;;;;;;;;;;24.17;44.51;99405.17;105024;1302;67510;-86
2023/08/03 17:14:31;;;;;;;;;;;;;;;24.13;44.47;99407.43;104975;1302;72693;-86
2023/08/03 17:17:17;;;;;;;;;;;;;;;24.10;44.60;99406.88;105137;1302;59226;-87
2023/08/03 17:20:03;;;;;;;;;;;;;;;24.06;44.65;99411.08;105058;1301;59465;-87
2023/08/03 17:22:49;;;;;;;;;;;;;;;24.01;44.62;99410.83;105087;1301;74741;-87
2023/08/03 17:25:36;;;;;;;;;;;;;;;23.96;44.63;99409.55;105095;1302;67720;-86
2023/08/03 17:28:23;;;;;;;;;;;;;;;23.92;44.67;99413.09;105227;1302;71317;-86
2023/08/03 17:31:09;;;;;;;;;;;;;;;23.85;44.75;99415.85;105120;1302;59002;-86
2023/08/03 17:33:55;;;;;;;;;;;;;;;23.80;44.74;99417.73;105177;1302;59508;-86
2023/08/03 17:36:41;;;;;;;;;;;;;;;23.77;44.80;99421.10;105135;1301;74622;-86
2023/08/03 17:39:27;;;;;;;;;;;;;;;23.74;44.87;99422.29;105087;1302;68444;-86
2023/08/03 17:42:13;;;;;;;;;;;;;;;23.72;44.77;99426.38;105259;1302;71298;-86
2023/08/03 17:44:59;;;;;;;;;;;;;;;23.68;44.78;99429.98;105108;1302;59417;-86
2023/08/03 17:47:45;;;;;;;;;;;;;;;23.65;44.71;99431.91;105123;1302;59027;-86
2023/08/03 17:50:32;;;;;;;;;;;;;;;23.60;44.81;99437.27;105256;1302;74474;-86
2023/08/03 17:53:35;;;;;;;;;;;;;;;23.55;44.81;99440.48;105285;1301;67384;-87
2023/08/03 17:56:21;;;;;;;;;;;;;;;23.51;44.91;99439.30;105106;1302;73520;-88
2023/08/03 17:59:29;;;;;;;;;;;;;;;23.48;44.87;99439.18;105091;1301;59075;-89
2023/08/03 18:02:54;;;;;;;;;;;;;;;23.44;44.79;99439.00;105324;1301;59520;-88
2023/08/03 18:06:02;;;;;;;;;;;;;;;23.40;44.97;99445.39;105279;1301;73429;-88
2023/08/03 18:09:09;;;;;;;;;;;;;;;23.38;45.00;99453.81;105230;1302;67334;-88
2023/08/03 18:12:16;;;;;;;;;;;;;;;23.36;45.07;99459.23;105257;1301;71392;-88
2023/08/03 18:15:42;;;;;;;;;;;;;;;23.35;45.06;99462.55;105160;1301;59309;-88
2023/08/03 18:18:49;;;;;;;;;;;;;;;23.30;45.06;99470.48;104976;1304;59122;-88
2023/08/03 18:22:15;;;;;;;;;;;;;;;23.26;45.24;99474.71;104840;1304;73306;-89
2023/08/03 18:25:41;;;;;;;;;;;;;;;23.22;45.26;99470.86;104970;1305;67761;-88
2023/08/03 18:28:50;;;;;;;;;;;;;;;23.20;45.29;99472.98;104874;1304;72148;-88
2023/08/03 18:31:56;;;;;;;;;;;;;;;23.17;45.28;99479.39;104864;1305;59775;-88
2023/08/03 18:35:22;;;;;;;;;;;;;;;23.14;45.40;99478.10;104895;1305;59056;-89
2023/08/03 18:38:48;;;;;;;;;;;;;;;23.11;45.30;99487.24;104860;1304;74654;-89
2023/08/03 18:42:14;;;;;;;;;;;;;;;23.08;45.41;99491.34;105099;1305;68683;-89
2023/08/03 18:45:40;;;;;;;;;;;;;;;23.06;45.47;99495.25;104867;1305;71417;-89
2023/08/03 18:49:06;;;;;;;;;;;;;;;23.02;45.49;99499.80;105026;1302;59050;-89
2023/08/03 18:52:14;;;;;;;;;;;;;;;23.01;45.57;99502.73;105313;1301;59925;-89
2023/08/03 18:55:40;;;;;;;;;;;;;;;22.98;45.56;99502.80;105198;1301;74350;-88
2023/08/03 18:59:06;;;;;;;;;;;;;;;22.93;45.64;99505.35;105249;1302;67630;-88
2023/08/03 19:02:21;;;;;;;;;;;;;;;22.90;45.70;99509.48;105131;1304;70304;-89
2023/08/03 20:30:50;;;;;;;;;;;;;;;22.17;47.05;99596.75;83853;1324;73421;-93
2023/08/03 20:33:56;;;;;;;;;;;;;;;22.10;47.07;99605.64;105347;1302;67277;-86
2023/08/03 20:42:09;;;;;;;;;;;;;;;22.05;47.22;99615.70;105474;1300;59935;-90
2023/08/03 20:48:12;;;;;;;;;;;;;;;22.04;47.34;99620.39;105511;1301;67825;-89
2023/08/03 20:51:42;;;;;;;;;;;;;;;22.04;47.40;99622.84;105522;1301;71284;-90
2023/08/03 20:54:35;;;;;;;;;;;;;;;22.02;47.49;99620.66;105547;1300;59036;-90
2023/08/03 21:35:09;;;;;;;;;;;;;;;21.58;48.12;99658.16;83898;1324;58857;-93
2023/08/03 22:45:51;;;;;;;;;;;;;;;21.10;49.63;99754.19;105317;1301;59387;-90
2023/08/03 22:51:54;;;;;;;;;;;;;;;21.00;49.69;99757.88;105473;1302;67677;-90
2023/08/03 23:02:44;;;;;;;;;;;;;;;20.96;50.08;99769.23;105446;1301;74407;-90
2023/08/03 23:18:58;;;;;;;;;;;;;;;20.73;50.53;99771.27;105482;1299;79152;-90
